createdAt,value
2023-03-06T00:01:17.359Z,30
2023-03-06T00:06:17.360Z,24
2023-03-06T00:11:17.361Z,28
2023-03-06T00:16:17.350Z,32
2023-03-06T00:21:17.361Z,26
2023-03-06T00:26:17.351Z,30
2023-03-06T00:31:17.362Z,37
2023-03-06T00:36:17.363Z,35
2023-03-06T00:41:17.352Z,25
2023-03-06T00:46:17.365Z,28
2023-03-06T00:51:17.354Z,20
2023-03-06T00:56:17.365Z,18
2023-03-06T01:01:17.365Z,31
2023-03-06T01:06:17.366Z,33
2023-03-06T01:11:17.367Z,32
2023-03-06T01:16:17.356Z,42
2023-03-06T01:21:17.368Z,41
2023-03-06T01:26:17.357Z,32
2023-03-06T01:31:17.369Z,36
2023-03-06T01:36:17.369Z,31
2023-03-06T01:41:17.359Z,31
2023-03-06T01:46:17.371Z,32
2023-03-06T01:51:17.360Z,28
2023-03-06T01:56:17.372Z,25
2023-03-06T02:01:17.372Z,35
2023-03-06T02:06:17.373Z,34
2023-03-06T02:11:17.374Z,35
2023-03-06T02:16:17.363Z,42
2023-03-06T02:21:17.374Z,34
2023-03-06T02:26:17.364Z,33
2023-03-06T02:31:17.375Z,40
2023-03-06T02:36:17.376Z,31
2023-03-06T02:41:17.377Z,22
2023-03-06T02:46:17.378Z,30
2023-03-06T02:51:17.367Z,32
2023-03-06T02:56:17.378Z,31
2023-03-06T03:01:17.368Z,36
2023-03-06T03:06:17.379Z,32
2023-03-06T03:11:17.380Z,27
2023-03-06T03:16:17.369Z,32
2023-03-06T03:21:17.381Z,37
2023-03-06T03:26:17.370Z,31
2023-03-06T03:31:17.382Z,35
2023-03-06T03:36:17.382Z,28
2023-03-06T03:41:17.383Z,25
2023-03-06T03:46:17.384Z,32
2023-03-06T03:51:17.373Z,29
2023-03-06T03:56:17.385Z,28
2023-03-06T04:01:17.374Z,34
2023-03-06T04:06:17.410Z,34
2023-03-06T04:11:17.386Z,29
2023-03-06T04:16:17.387Z,30
2023-03-06T04:21:17.388Z,30
2023-03-06T04:26:17.377Z,28
2023-03-06T04:31:17.388Z,31
2023-03-06T04:36:17.389Z,26
2023-03-06T04:41:17.389Z,30
2023-03-06T04:46:17.390Z,35
2023-03-06T04:51:17.380Z,37
2023-03-06T04:56:17.392Z,28
2023-03-06T05:01:17.381Z,40
2023-03-06T05:06:17.392Z,31
2023-03-06T05:11:17.393Z,37
2023-03-06T05:16:17.393Z,40
2023-03-06T05:21:17.394Z,37
2023-03-06T05:26:17.383Z,30
2023-03-06T05:31:17.395Z,34
2023-03-06T05:36:17.384Z,36
2023-03-06T05:41:17.396Z,30
2023-03-06T05:46:17.396Z,31
2023-03-06T05:51:17.386Z,38
2023-03-06T05:56:17.398Z,38
2023-03-06T06:01:17.387Z,46
2023-03-06T06:06:17.398Z,45
2023-03-06T06:11:17.399Z,49
2023-03-06T06:16:17.399Z,65
2023-03-06T06:21:17.401Z,68
2023-03-06T06:26:17.390Z,67
2023-03-06T06:31:17.401Z,61
2023-03-06T06:36:17.391Z,60
2023-03-06T06:41:17.402Z,52
2023-03-06T06:46:17.402Z,56
2023-03-06T06:51:17.392Z,78
2023-03-06T06:56:17.404Z,80
2023-03-06T07:01:17.393Z,74
2023-03-06T07:06:17.405Z,61
2023-03-06T07:11:17.405Z,78
2023-03-06T07:16:17.406Z,56
2023-03-06T07:21:17.407Z,42
2023-03-06T07:26:17.396Z,63
2023-03-06T07:31:17.408Z,62
2023-03-06T07:36:17.397Z,66
2023-03-06T07:41:17.409Z,69
2023-03-06T07:46:17.409Z,76
2023-03-06T07:51:17.399Z,78
2023-03-06T07:56:17.411Z,76
2023-03-06T08:01:17.400Z,90
2023-03-06T08:06:17.412Z,82
2023-03-06T08:11:17.402Z,82
2023-03-06T08:16:17.413Z,89
2023-03-06T08:21:17.414Z,93
2023-03-06T08:26:17.403Z,105
2023-03-06T08:31:17.415Z,104
2023-03-06T08:36:17.404Z,93
2023-03-06T08:41:17.416Z,87
2023-03-06T08:46:17.416Z,83
2023-03-06T08:51:17.417Z,101
2023-03-06T08:56:17.418Z,98
2023-03-06T09:01:17.408Z,107
2023-03-06T09:06:17.419Z,89
2023-03-06T09:11:17.409Z,96
2023-03-06T09:16:17.420Z,112
2023-03-06T09:21:17.421Z,94
2023-03-06T09:26:17.411Z,83
2023-03-06T09:31:17.423Z,86
2023-03-06T09:36:17.412Z,82
2023-03-06T09:41:17.424Z,74
2023-03-06T09:46:17.424Z,110
2023-03-06T09:51:17.425Z,100
2023-03-06T09:56:17.427Z,107
2023-03-06T10:01:17.416Z,110
2023-03-06T10:06:17.494Z,129
2023-03-06T10:11:17.418Z,100
2023-03-06T10:16:17.429Z,112
2023-03-06T10:21:17.430Z,83
2023-03-06T10:26:17.496Z,98
2023-03-06T10:31:17.432Z,100
2023-03-06T10:36:17.422Z,95
2023-03-06T10:41:17.433Z,101
2023-03-06T10:46:17.423Z,103
2023-03-06T10:51:17.435Z,84
2023-03-06T10:56:17.435Z,88
2023-03-06T11:01:17.425Z,97
2023-03-06T11:06:17.437Z,85
2023-03-06T11:11:17.427Z,106
2023-03-06T11:16:17.438Z,129
2023-03-06T11:21:17.439Z,148
2023-03-06T11:26:17.440Z,133
2023-03-06T11:31:17.441Z,118
2023-03-06T11:36:17.430Z,120
2023-03-06T11:41:17.442Z,115
2023-03-06T11:46:17.432Z,153
2023-03-06T11:51:17.443Z,138
2023-03-06T11:56:17.444Z,120
2023-03-06T12:01:17.434Z,135
2023-03-06T12:06:17.446Z,153
2023-03-06T12:11:17.435Z,137
2023-03-06T12:16:17.447Z,130
2023-03-06T12:21:17.437Z,97
2023-03-06T12:26:17.449Z,92
2023-03-06T12:41:17.492Z,81
2023-03-06T12:46:17.482Z,99
2023-03-06T12:51:17.494Z,111
2023-03-06T12:56:17.496Z,86
2023-03-06T13:01:17.485Z,86
2023-03-06T13:06:17.497Z,81
2023-03-06T13:11:17.487Z,82
2023-03-06T13:16:17.498Z,86
2023-03-06T13:21:17.499Z,84
2023-03-06T13:26:17.500Z,91
2023-03-06T13:31:17.501Z,106
2023-03-06T13:36:17.491Z,99
2023-03-06T13:41:17.503Z,100
2023-03-06T13:46:17.492Z,104
2023-03-06T13:51:17.504Z,95
2023-03-06T13:56:17.505Z,107
2023-03-06T14:01:17.495Z,125
2023-03-06T14:06:17.507Z,125
2023-03-06T14:11:17.497Z,102
2023-03-06T14:16:17.508Z,114
2023-03-06T14:21:17.509Z,122
2023-03-06T14:26:17.510Z,115
2023-03-06T14:31:17.512Z,121
2023-03-06T14:36:17.501Z,130
2023-03-06T14:41:17.512Z,144
2023-03-06T14:46:17.502Z,121
2023-03-06T14:51:17.514Z,138
2023-03-06T14:56:17.515Z,136
2023-03-06T15:01:17.504Z,134
2023-03-06T15:06:17.517Z,117
2023-03-06T15:11:17.506Z,112
2023-03-06T15:16:17.518Z,126
2023-03-06T15:21:17.518Z,123
2023-03-06T15:26:17.519Z,109
2023-03-06T15:31:17.544Z,115
2023-03-06T15:36:17.510Z,102
2023-03-06T15:41:17.521Z,109
2023-03-06T15:46:17.511Z,129
2023-03-06T15:51:17.523Z,110
2023-03-06T15:56:17.524Z,103
2023-03-06T16:01:17.514Z,158
2023-03-06T16:06:17.526Z,131
2023-03-06T16:11:17.515Z,119
2023-03-06T16:16:17.527Z,132
2023-03-06T16:21:17.517Z,117
2023-03-06T16:26:17.528Z,89
2023-03-06T16:31:17.529Z,93
2023-03-06T16:36:17.519Z,88
2023-03-06T16:41:17.573Z,75
2023-03-06T16:46:17.521Z,90
2023-03-06T16:51:17.532Z,85
2023-03-06T16:56:17.533Z,101
2023-03-06T17:01:17.534Z,100
2023-03-06T17:06:17.535Z,99
2023-03-06T17:11:17.524Z,102
2023-03-06T17:16:17.536Z,80
2023-03-06T17:21:17.526Z,61
2023-03-06T17:26:17.537Z,70
2023-03-06T17:31:17.538Z,74
2023-03-06T17:36:17.528Z,60
2023-03-06T17:41:17.540Z,54
2023-03-06T17:46:17.529Z,56
2023-03-06T17:51:17.540Z,78
2023-03-06T17:56:17.541Z,50
2023-03-06T18:01:17.542Z,61
2023-03-06T18:06:17.543Z,65
2023-03-06T18:11:17.532Z,44
2023-03-06T18:16:17.544Z,55
2023-03-06T18:21:17.533Z,52
2023-03-06T18:26:17.593Z,41
2023-03-06T18:31:17.546Z,61
2023-03-06T18:36:17.546Z,65
2023-03-06T18:41:17.548Z,76
2023-03-06T18:46:17.537Z,80
2023-03-06T18:51:17.548Z,76
2023-03-06T18:56:17.538Z,59
2023-03-06T19:01:17.550Z,57
2023-03-06T19:06:17.550Z,63
2023-03-06T19:11:17.540Z,46
2023-03-06T19:16:17.552Z,58
2023-03-06T19:21:17.541Z,67
2023-03-06T19:26:17.553Z,48
2023-03-06T19:31:17.553Z,42
2023-03-06T19:36:17.554Z,43
2023-03-06T19:41:17.555Z,55
2023-03-06T19:46:17.544Z,64
2023-03-06T19:51:17.556Z,55
2023-03-06T19:56:17.545Z,54
2023-03-06T20:01:17.557Z,39
2023-03-06T20:06:17.557Z,42
2023-03-06T20:11:17.547Z,44
2023-03-06T20:16:17.559Z,45
2023-03-06T20:21:17.548Z,41
2023-03-06T20:26:17.560Z,41
2023-03-06T20:31:17.560Z,45
2023-03-06T20:36:17.561Z,41
2023-03-06T20:41:17.562Z,26
2023-03-06T20:46:17.551Z,26
2023-03-06T20:51:17.563Z,37
2023-03-06T20:56:17.552Z,33
2023-03-06T21:01:17.612Z,37
2023-03-06T21:06:17.564Z,32
2023-03-06T21:11:17.565Z,31
2023-03-06T21:16:17.566Z,47
2023-03-06T21:21:17.555Z,33
2023-03-06T21:26:17.567Z,24
2023-03-06T21:31:17.557Z,26
2023-03-06T21:36:17.568Z,30
2023-03-06T21:41:17.568Z,30
2023-03-06T21:46:17.558Z,30
2023-03-06T21:51:17.570Z,32
2023-03-06T21:56:17.559Z,36
2023-03-06T22:01:17.571Z,31
2023-03-06T22:06:17.571Z,40
2023-03-06T22:11:17.572Z,30
2023-03-06T22:16:17.573Z,39
2023-03-06T22:21:17.562Z,29
2023-03-06T22:26:17.574Z,24
2023-03-06T22:31:17.563Z,20
2023-03-06T22:36:17.575Z,31
2023-03-06T22:41:17.575Z,29
2023-03-06T22:46:17.565Z,35
2023-03-06T22:51:17.577Z,31
2023-03-06T22:56:17.566Z,41
2023-03-06T23:01:17.578Z,31
2023-03-06T23:06:17.578Z,34
2023-03-06T23:11:17.579Z,25
2023-03-06T23:16:17.579Z,46
2023-03-06T23:21:17.569Z,37
2023-03-06T23:26:17.581Z,34
2023-03-06T23:31:17.570Z,29
2023-03-06T23:36:17.581Z,25
2023-03-06T23:41:17.582Z,29
2023-03-06T23:46:17.572Z,19
2023-03-06T23:51:17.584Z,21
2023-03-06T23:56:17.573Z,16
